Omitama, Japan
Current Conditions -  °F | °C
As of 12:00 AM on Monday 22 Dec 2014 (Local Time) from RJAH Reporting Station
Scattered Clouds Scattered Clouds  
Wind Chill: 39°   Ceiling: Unl
Heat Index: 39°   Visibility: 6mi
Dew Point: 36°   Wind: 1mph
Humidity: 87%   Direction: 140°SE
Pressure: 29.71"   Gusts: NA
Location:  36.23°N, 140.35°E
Report Text: RJAH 211500Z 14001KT 9999 FEW025 SCT/// 04/02 Q1006
Loading
Personal Weather Stations






























Interactive Weather Map New forecast layout! Learn more

10-Day Weather Forecast

Advertisements
Track Severe Weather on mobile